createdAt,value
2017-05-09T00:01:41.858Z,6.40
2017-05-09T00:04:10.922Z,6.40
2017-05-09T00:06:41.092Z,6.30
2017-05-09T00:09:10.167Z,6.30
2017-05-09T00:11:39.999Z,6.10
2017-05-09T00:14:09.091Z,6.20
2017-05-09T00:16:38.155Z,6.10
2017-05-09T00:19:07.834Z,6.00
2017-05-09T00:21:37.666Z,6.00
2017-05-09T00:24:06.789Z,6.00
2017-05-09T00:26:35.877Z,5.90
2017-05-09T00:29:05.717Z,5.80
2017-05-09T00:31:34.908Z,5.90
2017-05-09T00:34:03.964Z,5.80
2017-05-09T00:36:33.759Z,5.70
2017-05-09T00:39:02.870Z,5.70
2017-05-09T00:41:32.689Z,5.60
2017-05-09T00:44:01.775Z,5.60
2017-05-09T00:46:30.827Z,5.60
2017-05-09T00:48:59.907Z,5.50
2017-05-09T00:51:29.001Z,5.50
2017-05-09T00:53:58.314Z,5.50
2017-05-09T00:56:27.376Z,5.40
2017-05-09T00:58:56.422Z,5.40
2017-05-09T01:01:25.495Z,5.30
2017-05-09T01:03:54.559Z,5.30
2017-05-09T01:06:23.644Z,5.40
2017-05-09T01:08:53.438Z,5.30
2017-05-09T01:11:22.965Z,5.40
2017-05-09T01:13:52.024Z,5.50
2017-05-09T01:16:21.088Z,5.50
2017-05-09T01:18:50.178Z,5.50
2017-05-09T01:21:19.275Z,5.60
2017-05-09T01:23:48.352Z,5.60
2017-05-09T01:26:17.403Z,5.60
2017-05-09T01:28:47.402Z,5.60
2017-05-09T01:31:16.464Z,5.60
2017-05-09T01:33:45.518Z,5.60
2017-05-09T01:36:14.575Z,5.60
2017-05-09T01:38:43.623Z,5.60
2017-05-09T01:41:12.705Z,5.60
2017-05-09T01:43:42.551Z,5.50
2017-05-09T01:46:11.682Z,5.50
2017-05-09T01:48:40.737Z,5.50
2017-05-09T01:51:10.042Z,5.50
2017-05-09T01:53:39.104Z,5.50
2017-05-09T01:56:08.187Z,5.50
2017-05-09T01:58:37.263Z,5.40
2017-05-09T02:01:06.324Z,5.50
2017-05-09T02:03:35.443Z,5.50
2017-05-09T02:06:04.497Z,5.50
2017-05-09T02:08:33.568Z,5.50
2017-05-09T02:11:03.375Z,5.40
2017-05-09T02:13:33.313Z,5.40
2017-05-09T02:16:02.370Z,5.40
2017-05-09T02:18:31.433Z,5.40
2017-05-09T02:21:00.523Z,5.40
2017-05-09T02:23:29.587Z,5.40
2017-05-09T02:25:58.675Z,5.40
2017-05-09T02:28:27.766Z,5.30
2017-05-09T02:30:57.584Z,5.20
2017-05-09T02:33:26.627Z,5.30
2017-05-09T02:35:56.628Z,5.20
2017-05-09T02:38:25.748Z,5.20
2017-05-09T02:40:54.799Z,5.20
2017-05-09T02:43:23.879Z,5.20
2017-05-09T02:45:52.930Z,5.20
2017-05-09T02:48:22.020Z,5.10
2017-05-09T02:50:51.085Z,5.10
2017-05-09T02:53:20.310Z,5.10
2017-05-09T02:55:49.373Z,5.10
2017-05-09T02:58:18.437Z,5.10
2017-05-09T03:00:47.577Z,5.10
2017-05-09T03:03:16.615Z,5.10
2017-05-09T03:05:46.437Z,5.10
2017-05-09T03:08:15.499Z,5.10
2017-05-09T03:10:44.584Z,5.10
2017-05-09T03:13:13.960Z,5.10
2017-05-09T03:15:43.156Z,5.00
2017-05-09T03:18:12.221Z,4.90
2017-05-09T03:20:41.282Z,4.90
2017-05-09T03:23:10.369Z,4.90
2017-05-09T03:25:39.438Z,4.80
2017-05-09T03:28:08.529Z,4.80
2017-05-09T03:30:37.600Z,4.80
2017-05-09T03:33:06.784Z,4.80
2017-05-09T03:35:36.563Z,4.70
2017-05-09T03:38:05.629Z,4.70
2017-05-09T03:40:34.712Z,4.70
2017-05-09T03:43:03.771Z,4.70
2017-05-09T03:45:33.903Z,4.60
2017-05-09T03:48:02.971Z,4.60
2017-05-09T03:50:32.783Z,4.60
2017-05-09T03:53:01.867Z,4.60
2017-05-09T03:55:30.956Z,4.70
2017-05-09T03:58:00.508Z,4.60
2017-05-09T04:00:29.595Z,4.70
2017-05-09T04:02:58.686Z,4.60
2017-05-09T04:05:27.775Z,4.70
2017-05-09T04:07:57.584Z,4.60
2017-05-09T04:10:27.412Z,4.60
2017-05-09T04:12:57.209Z,4.60
2017-05-09T04:15:26.450Z,4.70
2017-05-09T04:17:55.515Z,4.80
2017-05-09T04:20:24.586Z,4.70
2017-05-09T04:22:53.657Z,4.80
2017-05-09T04:25:22.721Z,4.80
2017-05-09T04:27:51.832Z,4.80
2017-05-09T04:30:20.911Z,4.80
2017-05-09T04:32:50.199Z,4.80
2017-05-09T04:35:19.696Z,4.80
2017-05-09T04:37:48.759Z,4.80
2017-05-09T04:40:18.569Z,4.90
2017-05-09T04:42:47.670Z,5.00
2017-05-09T04:45:16.731Z,5.00
2017-05-09T04:47:47.126Z,5.10
2017-05-09T04:50:16.193Z,5.10
2017-05-09T04:52:45.418Z,5.20
2017-05-09T04:55:14.552Z,5.20
2017-05-09T04:57:43.611Z,5.30
2017-05-09T05:00:12.710Z,5.30
2017-05-09T05:02:41.813Z,5.30
2017-05-09T05:05:11.655Z,5.40
2017-05-09T05:07:40.725Z,5.40
2017-05-09T05:10:09.918Z,5.40
2017-05-09T05:12:39.092Z,5.40
2017-05-09T05:15:08.156Z,5.50
2017-05-09T05:17:37.266Z,5.50
2017-05-09T05:20:08.649Z,5.70
2017-05-09T05:22:37.755Z,5.70
2017-05-09T05:25:06.798Z,5.70
2017-05-09T05:27:36.831Z,5.70
2017-05-09T05:30:05.903Z,5.80
2017-05-09T05:32:34.970Z,5.80
2017-05-09T05:35:04.079Z,5.90
2017-05-09T05:37:33.896Z,5.80
2017-05-09T05:40:03.086Z,5.90
2017-05-09T05:42:32.150Z,5.90
2017-05-09T05:45:01.255Z,5.90
2017-05-09T05:47:31.244Z,5.80
2017-05-09T05:50:00.387Z,5.70
2017-05-09T05:52:29.494Z,5.80
2017-05-09T05:54:59.304Z,5.70
2017-05-09T05:57:29.253Z,5.80
2017-05-09T05:59:58.321Z,5.80
2017-05-09T06:02:27.392Z,5.80
2017-05-09T06:04:56.487Z,5.70
2017-05-09T06:07:25.536Z,5.80
2017-05-09T06:09:54.628Z,5.90
2017-05-09T06:12:23.705Z,5.80
2017-05-09T06:14:52.815Z,5.80
2017-05-09T06:17:22.566Z,5.80
2017-05-09T06:19:51.764Z,5.90
2017-05-09T06:22:20.869Z,5.90
2017-05-09T06:24:49.941Z,6.00
2017-05-09T06:27:19.085Z,6.00
2017-05-09T06:29:48.177Z,6.10
2017-05-09T06:32:17.264Z,6.10
2017-05-09T06:34:46.306Z,6.10
2017-05-09T06:37:16.614Z,6.10
2017-05-09T06:39:45.684Z,6.10
2017-05-09T06:42:14.803Z,6.20
2017-05-09T06:44:43.923Z,6.20
2017-05-09T06:47:12.994Z,6.40
2017-05-09T06:49:42.122Z,6.50
2017-05-09T06:52:11.190Z,6.70
2017-05-09T06:54:40.467Z,7.00
2017-05-09T06:57:09.925Z,7.10
2017-05-09T06:59:39.395Z,7.20
2017-05-09T07:02:08.471Z,7.30
2017-05-09T07:04:37.552Z,7.30
2017-05-09T07:07:06.749Z,7.40
2017-05-09T07:09:35.832Z,7.40
2017-05-09T07:12:05.151Z,7.50
2017-05-09T07:14:34.361Z,7.50
2017-05-09T07:17:02.739Z,7.50
2017-05-09T07:19:31.859Z,7.50
2017-05-09T07:22:00.925Z,7.60
2017-05-09T07:24:31.530Z,7.60
2017-05-09T07:27:01.576Z,7.70
2017-05-09T07:29:30.998Z,7.80
2017-05-09T07:32:00.377Z,7.90
2017-05-09T07:34:29.539Z,8.00
2017-05-09T07:36:58.632Z,8.10
2017-05-09T07:39:27.746Z,8.10
2017-05-09T07:41:57.579Z,8.20
2017-05-09T07:44:26.649Z,8.40
2017-05-09T07:46:55.719Z,8.40
2017-05-09T07:49:25.564Z,8.50
2017-05-09T07:51:54.637Z,8.80
2017-05-09T07:54:23.752Z,8.90
2017-05-09T07:56:52.811Z,9.10
2017-05-09T07:59:21.899Z,9.30
2017-05-09T08:01:50.974Z,9.50
2017-05-09T08:04:20.444Z,10.00
2017-05-09T08:06:49.523Z,10.50
2017-05-09T08:09:18.609Z,11.00
2017-05-09T08:11:47.699Z,11.20
2017-05-09T08:14:16.795Z,11.30
2017-05-09T08:16:45.887Z,11.50
2017-05-09T08:19:14.975Z,11.70
2017-05-09T08:21:44.334Z,11.30
2017-05-09T08:24:13.408Z,10.90
2017-05-09T08:26:42.479Z,10.60
2017-05-09T08:29:11.571Z,10.30
2017-05-09T08:31:40.793Z,10.10
2017-05-09T08:34:09.886Z,9.90
2017-05-09T08:36:39.007Z,10.20
2017-05-09T08:39:08.224Z,10.60
2017-05-09T08:41:37.284Z,11.00
2017-05-09T08:44:06.336Z,11.20
2017-05-09T08:46:35.446Z,11.40
2017-05-09T08:49:04.503Z,11.60
2017-05-09T08:51:33.597Z,11.30
2017-05-09T08:54:02.715Z,11.00
2017-05-09T08:56:32.668Z,10.50
2017-05-09T08:59:01.740Z,10.50
2017-05-09T09:01:30.803Z,10.50
2017-05-09T09:04:00.687Z,10.40
2017-05-09T09:06:29.756Z,10.50
2017-05-09T09:08:58.852Z,10.20
2017-05-09T09:11:27.930Z,10.20
2017-05-09T09:13:57.068Z,10.10
2017-05-09T09:16:26.130Z,10.10
2017-05-09T09:18:55.507Z,10.20
2017-05-09T09:21:24.887Z,10.30
2017-05-09T09:23:53.959Z,10.30
2017-05-09T09:26:23.076Z,10.30
2017-05-09T09:28:52.146Z,10.60
2017-05-09T09:31:21.264Z,11.10
2017-05-09T09:33:50.327Z,11.70
2017-05-09T09:36:19.519Z,12.10
2017-05-09T09:38:49.565Z,12.60
2017-05-09T09:41:18.631Z,13.10
2017-05-09T09:43:47.768Z,13.20
2017-05-09T09:46:17.022Z,12.60
2017-05-09T09:48:46.112Z,12.00
2017-05-09T09:51:15.171Z,11.60
2017-05-09T09:53:45.316Z,11.40
2017-05-09T09:56:15.123Z,11.20
2017-05-09T09:58:44.227Z,11.30
2017-05-09T10:01:13.320Z,11.40
2017-05-09T10:03:42.419Z,11.40
2017-05-09T10:06:11.544Z,11.40
2017-05-09T10:08:40.605Z,11.40
2017-05-09T10:11:09.715Z,11.60
2017-05-09T10:13:38.776Z,11.80
2017-05-09T10:16:07.863Z,12.20
2017-05-09T10:18:36.927Z,12.40
2017-05-09T10:21:06.292Z,12.40
2017-05-09T10:23:35.350Z,12.20
2017-05-09T10:26:05.165Z,12.00
2017-05-09T10:28:35.000Z,11.70
2017-05-09T10:31:04.081Z,11.60
2017-05-09T10:33:33.171Z,11.60
2017-05-09T10:36:02.266Z,11.60
2017-05-09T10:38:32.424Z,11.60
2017-05-09T10:41:01.500Z,11.70
2017-05-09T10:43:30.588Z,11.90
2017-05-09T10:45:59.719Z,11.90
2017-05-09T10:48:28.830Z,11.90
2017-05-09T10:50:57.911Z,11.90
2017-05-09T10:53:26.986Z,11.80
2017-05-09T10:55:56.070Z,12.00
2017-05-09T10:58:25.131Z,12.00
2017-05-09T11:00:54.664Z,12.10
2017-05-09T11:03:23.765Z,12.00
2017-05-09T11:05:52.831Z,11.90
2017-05-09T11:08:22.683Z,12.00
2017-05-09T11:10:51.811Z,12.00
2017-05-09T11:13:20.908Z,12.10
2017-05-09T11:15:49.983Z,12.60
2017-05-09T11:18:19.088Z,13.10
2017-05-09T11:20:48.155Z,13.20
2017-05-09T11:23:17.415Z,13.00
2017-05-09T11:25:46.488Z,12.70
2017-05-09T11:28:15.567Z,12.30
2017-05-09T11:30:44.659Z,12.00
2017-05-09T11:33:13.736Z,11.90
2017-05-09T11:35:42.948Z,11.80
2017-05-09T11:38:12.048Z,11.90
2017-05-09T11:40:41.132Z,11.90
2017-05-09T11:43:10.271Z,12.00
2017-05-09T11:45:39.358Z,12.10
2017-05-09T11:48:08.545Z,12.30
2017-05-09T11:50:37.633Z,12.40
2017-05-09T11:53:06.699Z,12.20
2017-05-09T11:55:35.796Z,12.20
2017-05-09T11:58:04.886Z,12.50
2017-05-09T12:00:33.983Z,12.70
2017-05-09T12:03:03.065Z,12.90
2017-05-09T12:05:32.169Z,13.10
2017-05-09T12:08:01.272Z,13.00
2017-05-09T12:10:30.562Z,13.10
2017-05-09T12:12:59.760Z,13.20
2017-05-09T12:15:28.833Z,12.90
2017-05-09T12:17:57.908Z,12.60
2017-05-09T12:20:27.026Z,12.30
2017-05-09T12:22:56.087Z,12.50
2017-05-09T12:25:25.631Z,12.90
2017-05-09T12:27:54.730Z,13.40
2017-05-09T12:30:23.792Z,13.40
2017-05-09T12:32:52.952Z,13.80
2017-05-09T12:35:22.019Z,14.00
2017-05-09T12:37:51.115Z,14.20
2017-05-09T12:40:20.198Z,14.40
2017-05-09T12:42:49.369Z,14.30
2017-05-09T12:45:19.179Z,14.30
2017-05-09T12:47:48.652Z,14.60
2017-05-09T12:50:18.489Z,14.80
2017-05-09T12:52:47.579Z,14.70
2017-05-09T12:55:16.658Z,14.30
2017-05-09T12:57:45.722Z,14.20
2017-05-09T13:00:14.805Z,14.00
2017-05-09T13:02:43.875Z,13.70
2017-05-09T13:05:13.215Z,13.80
2017-05-09T13:07:42.290Z,13.90
2017-05-09T13:10:11.358Z,14.00
2017-05-09T13:12:41.180Z,14.20
2017-05-09T13:15:10.396Z,14.40
2017-05-09T13:17:39.547Z,14.30
2017-05-09T13:20:08.788Z,14.30
2017-05-09T13:22:37.896Z,14.60
2017-05-09T13:25:07.012Z,14.90
2017-05-09T13:27:36.203Z,15.30
2017-05-09T13:30:05.276Z,15.20
2017-05-09T13:32:34.343Z,15.00
2017-05-09T13:35:04.174Z,15.30
2017-05-09T13:37:33.256Z,15.60
2017-05-09T13:40:02.361Z,15.80
2017-05-09T13:42:31.429Z,15.30
2017-05-09T13:45:00.824Z,14.90
2017-05-09T13:47:29.908Z,14.80
2017-05-09T13:49:59.064Z,15.10
2017-05-09T13:52:28.561Z,15.30
2017-05-09T13:54:58.498Z,15.60
2017-05-09T13:57:27.640Z,15.60
2017-05-09T13:59:56.724Z,15.80
2017-05-09T14:02:25.807Z,15.80
2017-05-09T14:04:54.935Z,15.90
2017-05-09T14:07:24.147Z,15.80
2017-05-09T14:09:53.230Z,15.50
2017-05-09T14:12:22.699Z,15.60
2017-05-09T14:14:51.799Z,15.70
2017-05-09T14:17:20.913Z,15.60
2017-05-09T14:19:50.163Z,15.70
2017-05-09T14:22:19.260Z,15.90
2017-05-09T14:24:49.119Z,16.20
2017-05-09T14:27:18.212Z,16.70
2017-05-09T14:29:47.307Z,16.60
2017-05-09T14:32:16.849Z,16.60
2017-05-09T14:34:45.930Z,16.60
2017-05-09T14:37:15.026Z,16.30
2017-05-09T14:39:44.125Z,16.10
2017-05-09T14:42:13.191Z,16.00
2017-05-09T14:44:42.392Z,15.90
2017-05-09T14:47:11.464Z,15.90
2017-05-09T14:49:41.274Z,15.70
2017-05-09T14:52:11.111Z,15.80
2017-05-09T14:54:40.927Z,15.90
2017-05-09T14:57:10.233Z,15.30
2017-05-09T14:59:39.333Z,14.80
2017-05-09T15:02:08.430Z,14.60
2017-05-09T15:04:37.520Z,14.80
2017-05-09T15:07:06.602Z,15.10
2017-05-09T15:09:36.834Z,15.30
2017-05-09T15:12:05.934Z,15.80
2017-05-09T15:14:35.011Z,16.00
2017-05-09T15:17:04.099Z,16.50
2017-05-09T15:19:33.726Z,16.40
2017-05-09T15:22:03.123Z,15.70
2017-05-09T15:24:32.191Z,15.40
2017-05-09T15:27:02.005Z,15.10
2017-05-09T15:29:31.077Z,15.10
2017-05-09T15:32:00.127Z,15.20
2017-05-09T15:34:29.212Z,15.50
2017-05-09T15:36:58.285Z,15.60
2017-05-09T15:39:27.511Z,15.60
2017-05-09T15:41:56.573Z,15.60
2017-05-09T15:44:25.627Z,15.70
2017-05-09T15:46:54.721Z,15.90
2017-05-09T15:49:24.792Z,16.10
2017-05-09T15:51:54.001Z,16.20
2017-05-09T15:54:23.205Z,16.20
2017-05-09T15:56:52.277Z,16.20
2017-05-09T15:59:21.379Z,16.20
2017-05-09T16:01:50.468Z,16.00
2017-05-09T16:04:19.656Z,15.90
2017-05-09T16:06:48.768Z,15.90
2017-05-09T16:09:18.611Z,15.70
2017-05-09T16:11:47.707Z,15.60
2017-05-09T16:14:16.819Z,15.50
2017-05-09T16:16:45.923Z,15.40
2017-05-09T16:19:15.756Z,15.20
2017-05-09T16:21:45.620Z,15.30
2017-05-09T16:24:15.008Z,15.30
2017-05-09T16:26:44.207Z,15.30
2017-05-09T16:29:13.284Z,15.10
2017-05-09T16:31:42.772Z,15.10
2017-05-09T16:34:11.936Z,14.90
2017-05-09T16:36:41.004Z,14.80
2017-05-09T16:39:10.109Z,14.80
2017-05-09T16:41:39.893Z,14.70
2017-05-09T16:44:09.198Z,14.70
2017-05-09T16:46:38.268Z,14.80
2017-05-09T16:49:07.379Z,14.60
2017-05-09T16:51:36.464Z,14.50
2017-05-09T16:54:06.279Z,14.30
2017-05-09T16:56:35.384Z,14.20
2017-05-09T16:59:04.473Z,14.00
2017-05-09T17:01:33.591Z,13.80
2017-05-09T17:04:02.699Z,13.70
2017-05-09T17:06:31.920Z,13.70
2017-05-09T17:09:01.273Z,13.70
2017-05-09T17:11:30.416Z,13.70
2017-05-09T17:13:59.519Z,13.80
2017-05-09T17:16:28.884Z,13.80
2017-05-09T17:18:58.625Z,13.80
2017-05-09T17:21:27.735Z,13.80
2017-05-09T17:23:57.204Z,13.60
2017-05-09T17:26:26.277Z,13.60
2017-05-09T17:28:55.333Z,13.50
2017-05-09T17:31:25.188Z,13.50
2017-05-09T17:33:54.270Z,13.40
2017-05-09T17:36:23.717Z,13.10
2017-05-09T17:38:52.795Z,13.00
2017-05-09T17:41:21.889Z,12.90
2017-05-09T17:43:50.951Z,12.90
2017-05-09T17:46:20.192Z,12.90
2017-05-09T17:48:50.022Z,12.90
2017-05-09T17:51:19.099Z,12.90
2017-05-09T17:53:48.966Z,12.80
2017-05-09T17:56:18.055Z,12.90
2017-05-09T17:58:47.194Z,12.90
2017-05-09T18:01:16.265Z,12.90
2017-05-09T18:03:45.461Z,12.90
2017-05-09T18:06:14.532Z,12.90
2017-05-09T18:08:43.587Z,13.00
2017-05-09T18:11:13.478Z,12.90
2017-05-09T18:13:42.753Z,12.90
2017-05-09T18:16:11.952Z,12.90
2017-05-09T18:18:41.023Z,12.90
2017-05-09T18:21:10.827Z,12.80
2017-05-09T18:23:40.988Z,12.70
2017-05-09T18:26:10.072Z,12.80
2017-05-09T18:28:39.192Z,12.70
2017-05-09T18:31:08.259Z,12.70
2017-05-09T18:33:37.443Z,12.70
2017-05-09T18:36:07.244Z,12.60
2017-05-09T18:38:36.335Z,12.50
2017-05-09T18:41:05.403Z,12.40
2017-05-09T18:43:35.013Z,12.30
2017-05-09T18:46:03.884Z,12.30
2017-05-09T18:48:32.951Z,12.20
2017-05-09T18:51:02.060Z,12.10
2017-05-09T18:53:31.163Z,12.10
2017-05-09T18:56:01.083Z,12.00
2017-05-09T18:58:30.226Z,11.90
2017-05-09T19:00:59.343Z,11.90
2017-05-09T19:03:28.551Z,11.90
2017-05-09T19:05:57.627Z,11.80
2017-05-09T19:08:27.423Z,11.70
2017-05-09T19:10:56.533Z,11.70
2017-05-09T19:13:25.750Z,11.60
2017-05-09T19:15:54.863Z,11.60
2017-05-09T19:18:23.968Z,11.60
2017-05-09T19:20:53.415Z,11.60
2017-05-09T19:23:22.487Z,11.60
2017-05-09T19:25:51.987Z,11.60
2017-05-09T19:28:21.109Z,11.60
2017-05-09T19:30:50.192Z,11.60
2017-05-09T19:33:20.451Z,11.50
2017-05-09T19:35:49.515Z,11.60
2017-05-09T19:38:18.583Z,11.50
2017-05-09T19:40:47.668Z,11.50
2017-05-09T19:43:16.719Z,11.50
2017-05-09T19:45:45.853Z,11.50
2017-05-09T19:48:14.919Z,11.40
2017-05-09T19:50:44.009Z,11.50
2017-05-09T19:53:13.069Z,11.40
2017-05-09T19:55:42.348Z,11.40
2017-05-09T19:58:11.455Z,11.40
2017-05-09T20:00:41.271Z,11.40
2017-05-09T20:03:10.391Z,11.40
2017-05-09T20:05:39.492Z,11.40
2017-05-09T20:08:08.703Z,11.40
2017-05-09T20:10:37.774Z,11.40
2017-05-09T20:13:06.852Z,11.50
2017-05-09T20:15:36.681Z,11.40
2017-05-09T20:18:05.740Z,11.40
2017-05-09T20:20:34.832Z,11.50
2017-05-09T20:23:03.928Z,11.50
2017-05-09T20:25:33.883Z,11.40
2017-05-09T20:28:02.969Z,11.40
2017-05-09T20:30:32.055Z,11.40
2017-05-09T20:33:01.178Z,11.30
2017-05-09T20:35:30.259Z,11.30
2017-05-09T20:37:59.505Z,11.30
2017-05-09T20:40:28.571Z,11.30
2017-05-09T20:42:57.960Z,11.20
2017-05-09T20:45:27.036Z,11.20
2017-05-09T20:47:56.881Z,11.10
2017-05-09T20:50:25.971Z,11.20
2017-05-09T20:52:55.093Z,11.20
2017-05-09T20:55:24.310Z,11.20
2017-05-09T20:57:54.137Z,11.20
2017-05-09T21:00:23.204Z,11.20
2017-05-09T21:02:52.327Z,11.20
2017-05-09T21:05:22.151Z,11.10
2017-05-09T21:07:51.358Z,11.00
2017-05-09T21:10:20.415Z,10.90
2017-05-09T21:12:49.528Z,10.90
2017-05-09T21:15:19.616Z,10.80
2017-05-09T21:17:48.873Z,10.90
2017-05-09T21:20:18.368Z,10.80
2017-05-09T21:22:47.431Z,10.80
2017-05-09T21:25:17.256Z,10.70
2017-05-09T21:27:47.107Z,10.70
2017-05-09T21:30:16.183Z,10.80
2017-05-09T21:32:45.389Z,10.80
2017-05-09T21:35:14.500Z,10.80
2017-05-09T21:37:43.587Z,10.80
2017-05-09T21:40:12.679Z,10.80
2017-05-09T21:42:41.752Z,10.80
2017-05-09T21:45:10.848Z,10.80
2017-05-09T21:47:39.912Z,10.80
2017-05-09T21:50:09.898Z,10.70
2017-05-09T21:52:38.989Z,10.80
2017-05-09T21:55:08.066Z,10.80
2017-05-09T21:57:37.469Z,10.80
2017-05-09T22:00:06.567Z,10.70
2017-05-09T22:02:35.795Z,10.70
2017-05-09T22:05:04.858Z,10.70
2017-05-09T22:07:33.952Z,10.60
2017-05-09T22:10:03.048Z,10.60
2017-05-09T22:12:32.126Z,10.60
2017-05-09T22:15:01.223Z,10.50
2017-05-09T22:17:30.295Z,10.50
2017-05-09T22:19:59.391Z,10.50
2017-05-09T22:22:28.471Z,10.50
2017-05-09T22:24:57.801Z,10.50
2017-05-09T22:27:26.883Z,10.40
2017-05-09T22:29:55.979Z,10.40
2017-05-09T22:32:25.812Z,10.40
2017-05-09T22:34:54.908Z,10.50
2017-05-09T22:37:24.036Z,10.50
2017-05-09T22:39:53.129Z,10.40
2017-05-09T22:42:22.350Z,10.30
2017-05-09T22:44:52.152Z,10.20
2017-05-09T22:47:21.240Z,10.10
2017-05-09T22:49:50.391Z,10.00
2017-05-09T22:52:19.480Z,9.90
2017-05-09T22:54:48.568Z,9.80
2017-05-09T22:57:17.661Z,9.70
2017-05-09T22:59:46.767Z,9.60
2017-05-09T23:02:15.971Z,9.50
2017-05-09T23:04:45.149Z,9.50
2017-05-09T23:07:15.005Z,9.40
2017-05-09T23:09:44.071Z,9.30
2017-05-09T23:12:13.161Z,9.30
2017-05-09T23:14:42.957Z,9.10
2017-05-09T23:17:12.480Z,9.20
2017-05-09T23:19:41.543Z,9.10
2017-05-09T23:22:11.344Z,8.90
2017-05-09T23:24:40.427Z,8.90
2017-05-09T23:27:09.476Z,8.80
2017-05-09T23:29:38.565Z,8.70
2017-05-09T23:32:07.660Z,8.60
2017-05-09T23:34:36.734Z,8.50
2017-05-09T23:37:05.948Z,8.50
2017-05-09T23:39:35.865Z,8.30
2017-05-09T23:42:04.931Z,8.30
2017-05-09T23:44:34.503Z,8.30
2017-05-09T23:47:03.581Z,8.20
2017-05-09T23:49:32.921Z,8.20
2017-05-09T23:52:01.988Z,8.10
2017-05-09T23:54:31.068Z,8.10
2017-05-09T23:57:00.344Z,8.00
2017-05-09T23:59:30.139Z,7.90
